Terminal Aerodrome Forecast (TAF)

TAF

Data at: 1655 UTC 22 Oct 2021

TAF for:NVSC (Sola/Vanua Lava Arpt, TO, NV) issued at 1600 UTC 22 Oct 2021
Text:TAF NVSC 221600Z 2218/2318 VRB02KT 9999 SCT020
Forecast period:1800 UTC 22 October 2021 to 1800 UTC 23 October 2021
Forecast type:FROM: standard forecast or significant change
Winds:variable direction winds at 2 MPH (2 knots; 1.0 m/s)
Visibility:6 or more sm (10+ km)
Ceiling:at least 12,000 feet AGL
Clouds: scattered clouds at 2000 feet AGL

TAF

Data at: 1655 UTC 22 Oct 2021

TAF for:NVSG (Longana Arpt, PA, NV) issued at 1600 UTC 22 Oct 2021
Text:TAF NVSG 221600Z 2218/2318 VRB02KT 9999 SCT020
Forecast period:1800 UTC 22 October 2021 to 1800 UTC 23 October 2021
Forecast type:FROM: standard forecast or significant change
Winds:variable direction winds at 2 MPH (2 knots; 1.0 m/s)
Visibility:6 or more sm (10+ km)
Ceiling:at least 12,000 feet AGL
Clouds: scattered clouds at 2000 feet AGL

TAF

Data at: 1655 UTC 22 Oct 2021

TAF for:NVSS (Santo/Pekoa Intl, SA, NV) issued at 1600 UTC 22 Oct 2021
Text:TAF NVSS 221600Z 2218/2318 VRB02KT 9999 SCT020
Forecast period:1800 UTC 22 October 2021 to 1800 UTC 23 October 2021
Forecast type:FROM: standard forecast or significant change
Winds:variable direction winds at 2 MPH (2 knots; 1.0 m/s)
Visibility:6 or more sm (10+ km)
Ceiling:at least 12,000 feet AGL
Clouds: scattered clouds at 2000 feet AGL

TAF

Data at: 1655 UTC 22 Oct 2021

TAF for:NVSL (Malekula Isl/Lamap, MA, NV) issued at 1600 UTC 22 Oct 2021
Text:TAF NVSL 221600Z 2218/2318 VRB02KT 9999 SCT020
Forecast period:1800 UTC 22 October 2021 to 1800 UTC 23 October 2021
Forecast type:FROM: standard forecast or significant change
Winds:variable direction winds at 2 MPH (2 knots; 1.0 m/s)
Visibility:6 or more sm (10+ km)
Ceiling:at least 12,000 feet AGL
Clouds: scattered clouds at 2000 feet AGL

TAF

Data at: 1655 UTC 22 Oct 2021

TAF for:NVSP (Norsup Arpt, MA, NV) issued at 1600 UTC 22 Oct 2021
Text:TAF NVSP 221600Z 2218/2318 VRB02KT 9999 SCT020
Forecast period:1800 UTC 22 October 2021 to 1800 UTC 23 October 2021
Forecast type:FROM: standard forecast or significant change
Winds:variable direction winds at 2 MPH (2 knots; 1.0 m/s)
Visibility:6 or more sm (10+ km)
Ceiling:at least 12,000 feet AGL
Clouds: scattered clouds at 2000 feet AGL

TAF

Data at: 1655 UTC 22 Oct 2021

TAF for:NVVV (Efate/Bauerfield Int, SE, NV) issued at 1600 UTC 22 Oct 2021
Text:TAF NVVV 221600Z 2218/2318 VRB02KT 9999 SCT020
Forecast period:1800 UTC 22 October 2021 to 1800 UTC 23 October 2021
Forecast type:FROM: standard forecast or significant change
Winds:variable direction winds at 2 MPH (2 knots; 1.0 m/s)
Visibility:6 or more sm (10+ km)
Ceiling:at least 12,000 feet AGL
Clouds: scattered clouds at 2000 feet AGL

TAF

Data at: 1655 UTC 22 Oct 2021

TAF for:NVVW (Tanna Arpt, TA, NV) issued at 1600 UTC 22 Oct 2021
Text:TAF NVVW 221600Z 2218/2318 VRB02KT 9999 SCT020
Forecast period:1800 UTC 22 October 2021 to 1800 UTC 23 October 2021
Forecast type:FROM: standard forecast or significant change
Winds:variable direction winds at 2 MPH (2 knots; 1.0 m/s)
Visibility:6 or more sm (10+ km)
Ceiling:at least 12,000 feet AGL
Clouds: scattered clouds at 2000 feet AGL

TAF

Data at: 1655 UTC 22 Oct 2021

TAF for:NVVA (Aneityum/Mystery Isl, TA, NV) issued at 1600 UTC 22 Oct 2021
Text:TAF NVVA 221600Z 2218/2318 VRB02KT 9999 SCT020
Forecast period:1800 UTC 22 October 2021 to 1800 UTC 23 October 2021
Forecast type:FROM: standard forecast or significant change
Winds:variable direction winds at 2 MPH (2 knots; 1.0 m/s)
Visibility:6 or more sm (10+ km)
Ceiling:at least 12,000 feet AGL
Clouds: scattered clouds at 2000 feet AGL

TAF

Data at: 1655 UTC 22 Oct 2021

TAF NVVV 221600Z 2218/2318 VRB02KT 9999 SCT020
TAF NVSC 221600Z 2218/2318 VRB02KT 9999 SCT020
TAF NVSG 221600Z 2218/2318 VRB02KT 9999 SCT020
TAF NVSS 221600Z 2218/2318 VRB02KT 9999 SCT020
TAF NVSL 221600Z 2218/2318 VRB02KT 9999 SCT020
TAF NVSP 221600Z 2218/2318 VRB02KT 9999 SCT020
TAF NVVW 221600Z 2218/2318 VRB02KT 9999 SCT020
TAF NVVA 221600Z 2218/2318 VRB02KT 9999 SCT020